createdAt,value
2019-05-23T00:01:42.737Z,99281.46
2019-05-23T00:04:20.157Z,99281.48
2019-05-23T00:06:47.395Z,99282.76
2019-05-23T00:09:14.192Z,99285.67
2019-05-23T00:11:44.372Z,99286.67
2019-05-23T00:14:30.188Z,99285.88
2019-05-23T00:16:57.227Z,99285.37
2019-05-23T00:19:25.624Z,99285.63
2019-05-23T00:21:52.303Z,99283.23
2019-05-23T00:24:19.249Z,99277.41
2019-05-23T00:26:46.460Z,99280.08
2019-05-23T00:29:13.683Z,99281.65
2019-05-23T00:31:46.378Z,99281.28
2019-05-23T00:34:13.992Z,99277.52
2019-05-23T00:36:42.017Z,99276.97
2019-05-23T00:39:10.802Z,99276.09
2019-05-23T00:41:40.056Z,99275.83
2019-05-23T00:44:07.492Z,99278.03
2019-05-23T00:46:34.197Z,99273.30
2019-05-23T00:49:02.443Z,99277.77
2019-05-23T00:51:29.822Z,99311.88
2019-05-23T00:53:56.595Z,99278.31
2019-05-23T00:56:24.121Z,99274.34
2019-05-23T00:58:51.026Z,99266.63
2019-05-23T01:01:19.302Z,99269.58
2019-05-23T01:03:46.754Z,99269.08
2019-05-23T01:06:14.444Z,99261.37
2019-05-23T01:08:41.855Z,99270.41
2019-05-23T01:13:37.377Z,99271.06
2019-05-23T01:16:08.230Z,99263.91
2019-05-23T01:18:35.458Z,99268.34
2019-05-23T01:21:25.626Z,99267.95
2019-05-23T01:24:01.429Z,99272.36
2019-05-23T01:26:29.137Z,99264.24
2019-05-23T01:28:56.827Z,99275.63
2019-05-23T01:31:30.251Z,99271.42
2019-05-23T01:33:57.961Z,99266.88
2019-05-23T01:36:25.066Z,99267.46
2019-05-23T01:38:52.252Z,99267.50
2019-05-23T01:41:20.200Z,99262.39
2019-05-23T01:43:47.782Z,99265.33
2019-05-23T01:46:14.500Z,99266.30
2019-05-23T01:48:41.533Z,99264.17
2019-05-23T01:51:08.989Z,99258.66
2019-05-23T01:53:36.005Z,99263.70
2019-05-23T01:56:03.719Z,99260.75
2019-05-23T01:58:30.474Z,99269.72
2019-05-23T02:00:57.173Z,99270.73
2019-05-23T02:03:23.896Z,99264.16
2019-05-23T02:05:50.750Z,99259.06
2019-05-23T02:08:17.692Z,99264.91
2019-05-23T02:10:44.997Z,99258.22
2019-05-23T02:13:11.938Z,99264.53
2019-05-23T02:15:40.904Z,99261.09
2019-05-23T02:18:08.428Z,99253.05
2019-05-23T02:20:36.449Z,99265.97
2019-05-23T02:25:42.324Z,99268.61
2019-05-23T02:28:09.439Z,99277.61
2019-05-23T02:30:37.049Z,99268.11
2019-05-23T02:33:07.764Z,99280.72
2019-05-23T02:35:35.888Z,99262.29
2019-05-23T02:38:22.385Z,99267.36
2019-05-23T02:40:55.793Z,99263.92
2019-05-23T02:43:25.033Z,99262.88
2019-05-23T02:45:54.173Z,99267.00
2019-05-23T02:48:22.595Z,99264.84
2019-05-23T02:50:53.195Z,99264.13
2019-05-23T02:53:21.596Z,99259.91
2019-05-23T02:55:50.465Z,99265.42
2019-05-23T02:58:27.893Z,99260.61
2019-05-23T03:01:43.247Z,99258.91
2019-05-23T03:04:12.043Z,99259.98
2019-05-23T03:06:38.895Z,99250.97
2019-05-23T03:09:06.670Z,99265.59
2019-05-23T03:11:38.815Z,99247.61
2019-05-23T03:14:05.504Z,99247.32
2019-05-23T03:16:33.342Z,99247.27
2019-05-23T03:19:02.537Z,99259.69
2019-05-23T03:21:30.049Z,99251.63
2019-05-23T03:23:57.109Z,99250.28
2019-05-23T03:26:54.770Z,99252.80
2019-05-23T03:29:22.083Z,99262.30
2019-05-23T03:31:54.617Z,99259.83
2019-05-23T03:34:23.692Z,99253.37
2019-05-23T03:36:52.747Z,99259.38
2019-05-23T03:39:19.627Z,99258.87
2019-05-23T03:41:47.538Z,99258.55
2019-05-23T03:44:14.509Z,99267.01
2019-05-23T03:46:44.183Z,99252.88
2019-05-23T03:49:11.305Z,99253.79
2019-05-23T03:51:39.999Z,99254.84
2019-05-23T03:54:07.900Z,99253.89
2019-05-23T03:56:35.145Z,99261.25
2019-05-23T03:59:03.761Z,99253.24
2019-05-23T04:01:46.277Z,99249.00
2019-05-23T04:04:02.491Z,99253.27
2019-05-23T04:06:29.439Z,99258.96
2019-05-23T04:08:56.816Z,99249.38
2019-05-23T04:11:23.587Z,99246.64
2019-05-23T04:13:50.690Z,99243.43
2019-05-23T04:16:17.443Z,99250.54
2019-05-23T04:18:44.889Z,99251.22
2019-05-23T04:21:11.976Z,99250.16
2019-05-23T04:23:39.297Z,99253.27
2019-05-23T04:26:06.288Z,99246.42
2019-05-23T04:28:33.128Z,99242.98
2019-05-23T04:31:00.338Z,99243.17
2019-05-23T04:33:27.070Z,99246.03
2019-05-23T04:35:53.889Z,99240.76
2019-05-23T04:38:20.623Z,99241.38
2019-05-23T04:40:47.474Z,99241.05
2019-05-23T04:43:14.901Z,99243.36
2019-05-23T04:45:41.615Z,99243.66
2019-05-23T04:48:08.324Z,99242.88
2019-05-23T04:50:37.168Z,99248.28
2019-05-23T04:53:06.018Z,99247.03
2019-05-23T04:55:33.153Z,99241.81
2019-05-23T04:58:04.246Z,99251.31
2019-05-23T05:00:29.059Z,99247.19
2019-05-23T05:02:55.829Z,99258.61
2019-05-23T05:05:22.538Z,99254.23
2019-05-23T05:07:49.320Z,99261.12
2019-05-23T05:10:20.727Z,99251.66
2019-05-23T05:12:47.507Z,99259.09
2019-05-23T05:15:14.735Z,99253.55
2019-05-23T05:17:41.484Z,99252.83
2019-05-23T05:20:08.243Z,99264.71
2019-05-23T05:22:37.535Z,99253.17
2019-05-23T05:25:04.824Z,99252.77
2019-05-23T05:27:33.719Z,99260.50
2019-05-23T05:30:01.475Z,99255.66
2019-05-23T05:32:44.350Z,99248.28
2019-05-23T05:34:58.863Z,99255.92
2019-05-23T05:37:26.268Z,99259.67
2019-05-23T05:39:55.657Z,99253.63
2019-05-23T05:42:22.709Z,99254.98
2019-05-23T05:44:50.029Z,99251.55
2019-05-23T05:47:16.830Z,99259.73
2019-05-23T05:49:43.689Z,99248.17
2019-05-23T05:52:10.635Z,99262.94
2019-05-23T05:54:37.384Z,99259.66
2019-05-23T05:57:04.403Z,99255.75
2019-05-23T05:59:31.117Z,99259.25
2019-05-23T06:01:58.823Z,99255.03
2019-05-23T06:04:25.531Z,99260.89
2019-05-23T06:07:02.738Z,99254.58
2019-05-23T06:09:30.920Z,99257.22
2019-05-23T06:11:57.678Z,99250.42
2019-05-23T06:14:24.545Z,99263.14
2019-05-23T06:16:53.048Z,99252.61
2019-05-23T06:19:20.585Z,99264.83
2019-05-23T06:21:48.228Z,99259.80
2019-05-23T06:24:15.621Z,99252.89
2019-05-23T06:26:42.652Z,99256.35
2019-05-23T06:29:12.410Z,99258.19
2019-05-23T06:31:39.715Z,99259.27
2019-05-23T06:34:06.474Z,99269.10
2019-05-23T06:36:33.425Z,99255.33
2019-05-23T06:39:00.286Z,99260.08
2019-05-23T06:41:27.511Z,99261.66
2019-05-23T06:43:55.064Z,99260.55
2019-05-23T06:46:21.959Z,99256.28
2019-05-23T06:48:49.126Z,99263.66
2019-05-23T06:51:16.181Z,99267.31
2019-05-23T06:53:43.011Z,99269.42
2019-05-23T06:56:11.229Z,99273.62
2019-05-23T06:58:37.923Z,99258.72
2019-05-23T07:01:04.723Z,99262.69
2019-05-23T07:03:42.756Z,99269.53
2019-05-23T07:06:01.732Z,99269.17
2019-05-23T07:08:29.232Z,99263.59
2019-05-23T07:10:58.267Z,99260.25
2019-05-23T07:13:27.362Z,99262.59
2019-05-23T07:15:54.520Z,99265.47
2019-05-23T07:18:21.243Z,99267.67
2019-05-23T07:20:49.942Z,99265.73
2019-05-23T07:23:17.446Z,99304.66
2019-05-23T07:25:44.165Z,99260.09
2019-05-23T07:28:10.899Z,99265.75
2019-05-23T07:30:37.787Z,99272.84
2019-05-23T07:33:04.491Z,99257.06
2019-05-23T07:35:32.429Z,99266.09
2019-05-23T07:37:59.375Z,99260.07
2019-05-23T07:40:26.590Z,99262.41
2019-05-23T07:42:54.009Z,99266.17
2019-05-23T07:45:25.568Z,99269.20
2019-05-23T07:47:52.638Z,99268.03
2019-05-23T07:50:21.358Z,99268.82
2019-05-23T07:52:48.194Z,99256.32
2019-05-23T07:55:22.896Z,99263.20
2019-05-23T07:57:49.698Z,99257.50
2019-05-23T08:00:21.199Z,99257.30
2019-05-23T08:02:48.521Z,99229.58
2019-05-23T08:05:15.194Z,99267.59
2019-05-23T08:07:42.158Z,99266.26
2019-05-23T08:10:09.138Z,99260.85
2019-05-23T08:12:38.577Z,99257.16
2019-05-23T08:15:05.282Z,99255.06
2019-05-23T08:17:32.657Z,99272.58
2019-05-23T08:19:59.368Z,99257.16
2019-05-23T08:22:26.178Z,99244.70
2019-05-23T08:24:53.442Z,99242.57
2019-05-23T08:27:22.490Z,99243.88
2019-05-23T08:29:49.311Z,99251.38
2019-05-23T08:32:19.130Z,99245.48
2019-05-23T08:34:45.876Z,99244.07
2019-05-23T08:37:14.201Z,99247.69
2019-05-23T08:39:41.794Z,99235.80
2019-05-23T08:42:10.711Z,99243.53
2019-05-23T08:44:37.442Z,99244.00
2019-05-23T08:47:07.479Z,99238.42
2019-05-23T08:49:34.572Z,99236.09
2019-05-23T08:52:03.814Z,99234.27
2019-05-23T08:54:30.770Z,99229.83
2019-05-23T08:56:57.498Z,99228.13
2019-05-23T08:59:24.931Z,99232.03
2019-05-23T09:01:51.649Z,99226.54
2019-05-23T09:04:21.450Z,99234.56
2019-05-23T09:06:50.094Z,99219.30
2019-05-23T09:09:29.269Z,99217.11
2019-05-23T09:11:47.736Z,99208.00
2019-05-23T09:14:17.409Z,99205.67
2019-05-23T09:16:46.262Z,99209.74
2019-05-23T09:19:13.020Z,99203.16
2019-05-23T09:21:40.137Z,99202.80
2019-05-23T09:24:07.060Z,99198.90
2019-05-23T09:26:34.434Z,99206.30
2019-05-23T09:29:01.220Z,99203.11
2019-05-23T09:31:28.557Z,99203.97
2019-05-23T09:33:55.388Z,99200.88
2019-05-23T09:36:22.126Z,99203.79
2019-05-23T09:38:49.292Z,99196.77
2019-05-23T09:41:16.075Z,99199.75
2019-05-23T09:43:42.812Z,99202.02
2019-05-23T09:46:09.721Z,99194.39
2019-05-23T09:48:36.799Z,99195.35
2019-05-23T09:51:03.536Z,99187.13
2019-05-23T09:53:30.968Z,99197.16
2019-05-23T09:55:57.714Z,99191.96
2019-05-23T09:58:24.803Z,99189.14
2019-05-23T10:00:51.560Z,99197.00
2019-05-23T10:03:18.787Z,99189.48
2019-05-23T10:05:45.608Z,99186.20
2019-05-23T10:08:12.870Z,99199.11
2019-05-23T10:10:39.944Z,99188.31
2019-05-23T10:13:06.656Z,99190.26
2019-05-23T10:15:53.466Z,99189.09
2019-05-23T10:18:20.969Z,99182.48
2019-05-23T10:20:47.802Z,99183.02
2019-05-23T10:23:14.795Z,99185.87
2019-05-23T10:25:41.576Z,99182.73
2019-05-23T10:28:12.772Z,99179.00
2019-05-23T10:30:44.786Z,99178.70
2019-05-23T10:33:13.688Z,99170.96
2019-05-23T10:35:56.934Z,99164.75
2019-05-23T10:38:09.751Z,99159.45
2019-05-23T10:40:37.300Z,99167.48
2019-05-23T10:43:04.169Z,99154.56
2019-05-23T10:45:31.020Z,99157.39
2019-05-23T10:47:57.899Z,99157.39
2019-05-23T10:50:24.962Z,99164.88
2019-05-23T10:52:53.737Z,99156.65
2019-05-23T10:55:20.488Z,99160.98
2019-05-23T10:57:47.945Z,99148.67
2019-05-23T11:00:16.683Z,99151.91
2019-05-23T11:02:43.780Z,99145.53
2019-05-23T11:05:13.472Z,99143.48
2019-05-23T11:07:40.764Z,99136.91
2019-05-23T11:10:07.483Z,99144.50
2019-05-23T11:12:34.716Z,99140.30
2019-05-23T11:15:01.477Z,99131.30
2019-05-23T11:17:28.693Z,99143.20
2019-05-23T11:19:55.483Z,99135.72
2019-05-23T11:22:22.240Z,99127.98
2019-05-23T11:24:49.362Z,99128.79
2019-05-23T11:27:18.892Z,99129.20
2019-05-23T11:29:45.618Z,99119.46
2019-05-23T11:32:12.854Z,99120.52
2019-05-23T11:34:39.716Z,99129.64
2019-05-23T11:37:06.979Z,99130.95
2019-05-23T11:39:42.253Z,99116.09
2019-05-23T11:42:05.458Z,99111.28
2019-05-23T11:44:34.722Z,99113.82
2019-05-23T11:47:02.270Z,99108.02
2019-05-23T11:49:30.037Z,99110.47
2019-05-23T11:51:56.931Z,99105.17
2019-05-23T11:54:24.737Z,99095.68
2019-05-23T11:56:52.665Z,99093.61
2019-05-23T11:59:19.436Z,99090.55
2019-05-23T12:02:08.571Z,99112.05
2019-05-23T12:04:40.427Z,99083.80
2019-05-23T12:07:29.494Z,99093.18
2019-05-23T12:09:56.226Z,99087.13
2019-05-23T12:12:23.064Z,99088.83
2019-05-23T12:14:50.377Z,99079.42
2019-05-23T12:17:18.815Z,99076.98
2019-05-23T12:19:46.063Z,99076.14
2019-05-23T12:22:13.809Z,99077.66
2019-05-23T12:24:41.235Z,99074.11
2019-05-23T12:27:08.237Z,99084.25
2019-05-23T12:29:35.171Z,99070.74
2019-05-23T12:32:03.765Z,99065.65
2019-05-23T12:34:30.854Z,99067.71
2019-05-23T12:37:16.802Z,99062.31
2019-05-23T12:39:26.304Z,99057.50
2019-05-23T12:41:53.689Z,99055.92
2019-05-23T12:44:20.552Z,99063.00
2019-05-23T12:46:47.303Z,99050.02
2019-05-23T12:49:28.943Z,99052.27
2019-05-23T12:51:56.306Z,99045.37
2019-05-23T12:54:24.129Z,99048.31
2019-05-23T12:56:51.205Z,99054.83
2019-05-23T12:59:18.774Z,99047.31
2019-05-23T13:01:47.886Z,99042.73
2019-05-23T13:04:15.152Z,99049.53
2019-05-23T13:06:42.612Z,99053.54
2019-05-23T13:09:10.134Z,99054.55
2019-05-23T13:11:37.497Z,99051.52
2019-05-23T13:14:05.745Z,99050.16
2019-05-23T13:16:35.473Z,99054.04
2019-05-23T13:19:02.355Z,99051.72
2019-05-23T13:21:30.703Z,99040.72
2019-05-23T13:23:57.869Z,99040.50
2019-05-23T13:26:24.995Z,99036.63
2019-05-23T13:28:51.700Z,99035.58
2019-05-23T13:31:18.521Z,99037.39
2019-05-23T13:33:45.457Z,99036.76
2019-05-23T13:36:12.463Z,99023.53
2019-05-23T13:38:39.949Z,99033.83
2019-05-23T13:41:07.092Z,99026.56
2019-05-23T13:43:33.819Z,99022.99
2019-05-23T13:46:00.568Z,99012.02
2019-05-23T13:48:30.294Z,99015.72
2019-05-23T13:50:57.240Z,99012.45
2019-05-23T13:53:24.001Z,99014.81
2019-05-23T13:55:54.317Z,99007.53
2019-05-23T13:58:21.371Z,99008.65
2019-05-23T14:00:49.200Z,99002.04
2019-05-23T14:03:16.256Z,99000.34
2019-05-23T14:05:46.349Z,98998.75
2019-05-23T14:08:13.637Z,99001.86
2019-05-23T14:10:40.610Z,98999.55
2019-05-23T14:13:07.416Z,98989.16
2019-05-23T14:15:39.567Z,98993.28
2019-05-23T14:18:06.820Z,98991.41
2019-05-23T14:20:33.844Z,98984.39
2019-05-23T14:23:06.439Z,98984.78
2019-05-23T14:25:33.467Z,98972.30
2019-05-23T14:28:07.319Z,98971.03
2019-05-23T14:30:57.281Z,98971.83
2019-05-23T14:33:44.583Z,98973.83
2019-05-23T14:36:32.296Z,98969.84
2019-05-23T14:39:00.053Z,98970.62
2019-05-23T14:41:44.061Z,98967.78
2019-05-23T14:43:57.877Z,98967.59
2019-05-23T14:46:28.117Z,98959.81
2019-05-23T14:48:59.263Z,98959.22
2019-05-23T14:51:54.599Z,98961.45
2019-05-23T14:54:29.870Z,98954.38
2019-05-23T14:56:56.665Z,98951.05
2019-05-23T14:59:26.009Z,98953.20
2019-05-23T15:01:53.685Z,98955.87
2019-05-23T15:04:20.441Z,98946.05
2019-05-23T15:06:47.599Z,98947.84
2019-05-23T15:09:14.364Z,98947.23
2019-05-23T15:11:41.303Z,98946.12
2019-05-23T15:14:09.838Z,98942.80
2019-05-23T15:16:36.885Z,98948.58
2019-05-23T15:19:07.014Z,98950.41
2019-05-23T15:21:33.721Z,98942.56
2019-05-23T15:24:01.402Z,98945.50
2019-05-23T15:26:30.933Z,98937.55
2019-05-23T15:28:58.573Z,98933.08
2019-05-23T15:31:25.442Z,98938.30
2019-05-23T15:33:52.901Z,98926.64
2019-05-23T15:36:19.696Z,98933.62
2019-05-23T15:38:46.516Z,98931.88
2019-05-23T15:41:13.253Z,98929.42
2019-05-23T15:43:40.041Z,98929.11
2019-05-23T15:46:07.133Z,98937.27
2019-05-23T15:48:33.868Z,98935.02
2019-05-23T15:51:04.879Z,98922.84
2019-05-23T15:53:56.231Z,98925.34
2019-05-23T15:56:39.986Z,98928.44
2019-05-23T15:59:31.806Z,98923.31
2019-05-23T16:02:06.704Z,98916.71
2019-05-23T16:04:33.435Z,98910.22
2019-05-23T16:07:00.379Z,98908.20
2019-05-23T16:09:31.017Z,98915.52
2019-05-23T16:11:58.336Z,98918.30
2019-05-23T16:14:26.082Z,98925.06
2019-05-23T16:16:56.689Z,98920.00
2019-05-23T16:19:24.119Z,98922.81
2019-05-23T16:21:50.971Z,98918.16
2019-05-23T16:24:18.312Z,98912.66
2019-05-23T16:26:45.263Z,98912.38
2019-05-23T16:29:13.332Z,98912.46
2019-05-23T16:31:40.307Z,98919.58
2019-05-23T16:34:07.337Z,98914.48
2019-05-23T16:36:34.923Z,98905.34
2019-05-23T16:39:01.856Z,98908.39
2019-05-23T16:41:28.877Z,98906.34
2019-05-23T16:43:56.242Z,98911.30
2019-05-23T16:46:23.221Z,98917.10
2019-05-23T16:48:52.801Z,98921.41
2019-05-23T16:51:20.934Z,98897.55
2019-05-23T16:53:48.286Z,98902.70
2019-05-23T16:56:46.870Z,98908.42
2019-05-23T16:59:22.433Z,98911.67
2019-05-23T17:02:06.428Z,98904.52
2019-05-23T17:05:09.946Z,98896.48
2019-05-23T17:08:03.966Z,98892.95
2019-05-23T17:10:55.874Z,98896.89
2019-05-23T17:13:47.791Z,98746.98
2019-05-23T17:16:27.684Z,98897.69
2019-05-23T17:19:20.505Z,98894.58
2019-05-23T17:22:08.194Z,98897.13
2019-05-23T17:24:57.458Z,98909.16
2019-05-23T17:27:43.126Z,98895.03
2019-05-23T17:30:32.403Z,98895.83
2019-05-23T17:32:59.788Z,98893.84
2019-05-23T17:35:26.528Z,98888.34
2019-05-23T17:37:53.426Z,98895.34
2019-05-23T17:40:24.904Z,98893.79
2019-05-23T17:42:49.401Z,98895.57
2019-05-23T17:45:17.729Z,98904.04
2019-05-23T17:47:44.657Z,98897.23
2019-05-23T17:50:11.443Z,98897.33
2019-05-23T17:52:38.195Z,98892.19
2019-05-23T17:55:05.302Z,98892.97
2019-05-23T17:57:32.274Z,98891.82
2019-05-23T17:59:58.972Z,98884.95
2019-05-23T18:02:26.429Z,98891.48
2019-05-23T18:04:53.797Z,98882.03
2019-05-23T18:07:20.848Z,98883.62
2019-05-23T18:09:48.286Z,98886.73
2019-05-23T18:12:15.145Z,98879.56
2019-05-23T18:14:42.233Z,98884.99
2019-05-23T18:17:09.055Z,98894.07
2019-05-23T18:19:38.647Z,98886.89
2019-05-23T18:22:07.641Z,98887.60
2019-05-23T18:24:35.573Z,98888.75
2019-05-23T18:27:03.371Z,98887.40
2019-05-23T18:29:30.208Z,98896.95
2019-05-23T18:31:58.906Z,98883.86
2019-05-23T18:34:26.094Z,98885.70
2019-05-23T18:36:53.070Z,98893.33
2019-05-23T18:39:23.842Z,98891.31
2019-05-23T18:41:50.922Z,98890.42
2019-05-23T18:44:18.324Z,98894.06
2019-05-23T18:46:48.947Z,98889.13
2019-05-23T18:49:16.539Z,98893.64
2019-05-23T18:51:44.041Z,98898.69
2019-05-23T18:54:11.557Z,98890.83
2019-05-23T18:56:38.350Z,98893.09
2019-05-23T18:59:06.634Z,98886.47
2019-05-23T19:01:34.445Z,98885.36
2019-05-23T19:04:01.265Z,98893.65
2019-05-23T19:06:28.771Z,98895.87
2019-05-23T19:08:55.625Z,98892.94
2019-05-23T19:11:24.578Z,98895.53
2019-05-23T19:13:51.676Z,98905.95
2019-05-23T19:16:18.685Z,98904.46
2019-05-23T19:18:46.592Z,98904.11
2019-05-23T19:21:14.137Z,98901.17
2019-05-23T19:23:41.290Z,98916.15
2019-05-23T19:26:08.459Z,98910.75
2019-05-23T19:28:35.209Z,98915.50
2019-05-23T19:31:02.311Z,98914.47
2019-05-23T19:33:29.493Z,98914.67
2019-05-23T19:35:56.782Z,98916.41
2019-05-23T19:38:23.591Z,98915.25
2019-05-23T19:40:50.859Z,98913.45
2019-05-23T19:43:18.921Z,98916.66
2019-05-23T19:45:46.444Z,98907.97
2019-05-23T19:48:13.776Z,98911.23
2019-05-23T19:50:41.208Z,98913.26
2019-05-23T19:53:08.322Z,98911.83
2019-05-23T19:55:35.851Z,98910.25
2019-05-23T19:58:03.173Z,98908.40
2019-05-23T20:00:31.037Z,98912.92
2019-05-23T20:02:58.305Z,98909.91
2019-05-23T20:05:28.591Z,98908.44
2019-05-23T20:07:55.737Z,98908.30
2019-05-23T20:10:23.298Z,98911.55
2019-05-23T20:12:50.293Z,98909.04
2019-05-23T20:15:17.166Z,98913.95
2019-05-23T20:17:51.765Z,98908.62
2019-05-23T20:20:19.954Z,98905.22
2019-05-23T20:22:53.279Z,98903.90
2019-05-23T20:25:20.213Z,98913.83
2019-05-23T20:27:47.045Z,98918.58
2019-05-23T20:30:38.308Z,98917.06
2019-05-23T20:33:07.035Z,98916.99
2019-05-23T20:35:33.784Z,98918.19
2019-05-23T20:38:02.813Z,98912.94
2019-05-23T20:40:33.230Z,98914.59
2019-05-23T20:43:02.546Z,98935.48
2019-05-23T20:45:29.499Z,98919.41
2019-05-23T20:47:56.248Z,98913.88
2019-05-23T20:50:23.419Z,98914.73
2019-05-23T20:52:50.542Z,98914.77
2019-05-23T20:55:17.497Z,98918.37
2019-05-23T20:57:44.465Z,98910.09
2019-05-23T21:00:18.916Z,98913.84
2019-05-23T21:02:45.650Z,98941.13
2019-05-23T21:05:12.407Z,98919.60
2019-05-23T21:07:39.396Z,98907.52
2019-05-23T21:10:06.172Z,98916.55
2019-05-23T21:12:33.022Z,98914.64
2019-05-23T21:15:00.169Z,98915.32
2019-05-23T21:17:27.744Z,98914.16
2019-05-23T21:19:55.760Z,98944.01
2019-05-23T21:22:23.688Z,98911.23
2019-05-23T21:24:50.714Z,98918.84
2019-05-23T21:27:39.269Z,98908.83
2019-05-23T21:30:07.439Z,98918.30
2019-05-23T21:32:35.087Z,98917.64
2019-05-23T21:35:04.966Z,98918.55
2019-05-23T21:37:32.801Z,98914.77
2019-05-23T21:39:59.726Z,98924.52
2019-05-23T21:42:44.987Z,98911.52
2019-05-23T21:44:59.154Z,98908.98
2019-05-23T21:47:25.870Z,98914.37
2019-05-23T21:49:52.704Z,98915.75
2019-05-23T21:52:19.565Z,98952.33
2019-05-23T21:54:46.424Z,98917.30
2019-05-23T21:57:16.246Z,98914.76
2019-05-23T21:59:42.806Z,98914.66
2019-05-23T22:02:18.339Z,98912.38
2019-05-23T22:04:56.379Z,98916.19
2019-05-23T22:07:23.343Z,98916.19
2019-05-23T22:10:12.744Z,98910.02
2019-05-23T22:13:14.035Z,98955.08
2019-05-23T22:15:56.415Z,98940.06
2019-05-23T22:18:59.207Z,98913.94
2019-05-23T22:21:36.811Z,98932.77
2019-05-23T22:24:06.540Z,98916.73
2019-05-23T22:26:33.742Z,98901.59
2019-05-23T22:29:00.478Z,98898.48
2019-05-23T22:31:27.215Z,98897.00
2019-05-23T22:34:00.247Z,98896.37
2019-05-23T22:36:27.026Z,98894.17
2019-05-23T22:38:53.883Z,98893.22
2019-05-23T22:41:20.885Z,98891.83
2019-05-23T22:43:47.581Z,98886.02
2019-05-23T22:46:15.143Z,98885.78
2019-05-23T22:48:41.895Z,98880.34
2019-05-23T22:51:08.610Z,98890.91
2019-05-23T22:53:38.395Z,98890.13
2019-05-23T22:56:05.234Z,98902.36
2019-05-23T22:58:32.228Z,98893.58
2019-05-23T23:00:59.070Z,98899.92
2019-05-23T23:03:25.783Z,98897.83
2019-05-23T23:05:52.645Z,98899.28
2019-05-23T23:08:19.975Z,98900.07
2019-05-23T23:10:47.674Z,98906.06
2019-05-23T23:13:14.796Z,98900.08
2019-05-23T23:15:44.997Z,98904.64
2019-05-23T23:18:11.781Z,98905.70
2019-05-23T23:20:38.525Z,98896.99
2019-05-23T23:23:05.447Z,98885.09
2019-05-23T23:25:32.293Z,98888.19
2019-05-23T23:27:59.012Z,98882.86
2019-05-23T23:30:29.071Z,98888.09
2019-05-23T23:32:55.779Z,98880.44
2019-05-23T23:35:22.620Z,98879.28
2019-05-23T23:37:49.322Z,98881.20
2019-05-23T23:40:16.523Z,98874.81
2019-05-23T23:42:43.585Z,98870.50
2019-05-23T23:45:29.077Z,98871.07
2019-05-23T23:48:14.059Z,98915.44
2019-05-23T23:50:58.955Z,98868.08
2019-05-23T23:53:44.134Z,98864.98
2019-05-23T23:56:29.656Z,98865.02
2019-05-23T23:58:56.047Z,98861.44
